Time;durP1;ratioP1;P1;durP2;ratioP2;P2;SDS_P1;SDS_P2;PMS_P1;PMS_P2;Temp;Humidity;BMP_temperature;BMP_pressure;BME280_temperature;BME280_humidity;BME280_pressure;Samples;Min_cycle;Max_cycle;Signal;HPM_P1;HPM_P2
2022/04/15 00:01:32;;;;;;;21.23;12.93;;;12.40;99.90;;;;;;7337698;19;110742;-91
2022/04/15 00:03:59;;;;;;;17.65;12.20;;;12.30;99.90;;;;;;7336253;19;111236;-91
2022/04/15 00:06:27;;;;;;;19.38;12.85;;;12.30;99.90;;;;;;7336565;19;110262;-91
2022/04/15 00:08:54;;;;;;;19.13;12.65;;;12.30;99.90;;;;;;7340572;19;111069;-91
2022/04/15 00:11:21;;;;;;;17.27;12.30;;;12.20;99.90;;;;;;7337259;19;111565;-91
2022/04/15 00:13:49;;;;;;;20.77;13.20;;;12.20;99.90;;;;;;7335927;19;110497;-90
2022/04/15 00:16:19;;;;;;;20.65;12.65;;;12.10;99.90;;;;;;7336237;19;112689;-90
2022/04/15 00:18:46;;;;;;;19.10;12.75;;;12.10;99.90;;;;;;7333453;19;110479;-90
2022/04/15 00:21:13;;;;;;;20.20;13.07;;;12.00;99.90;;;;;;7335061;19;110326;-90
2022/04/15 00:23:41;;;;;;;15.88;12.50;;;12.00;99.90;;;;;;7337997;19;111389;-91
2022/04/15 00:26:08;;;;;;;14.73;12.05;;;12.00;99.90;;;;;;7334226;19;109846;-91
2022/04/15 00:28:35;;;;;;;16.05;12.80;;;12.00;99.90;;;;;;7342106;19;110288;-90
2022/04/15 00:31:02;;;;;;;19.35;12.60;;;11.90;99.90;;;;;;7336165;19;109996;-90
2022/04/15 00:33:29;;;;;;;24.10;14.32;;;11.80;99.90;;;;;;7336073;19;111371;-90
2022/04/15 00:35:57;;;;;;;13.38;10.63;;;11.80;99.90;;;;;;7336297;19;110748;-91
2022/04/15 00:38:24;;;;;;;14.68;11.50;;;11.80;99.90;;;;;;7323525;19;111389;-92
2022/04/15 00:40:51;;;;;;;15.65;11.55;;;11.70;99.90;;;;;;7322238;19;111842;-90
2022/04/15 00:43:18;;;;;;;18.45;11.13;;;11.70;99.90;;;;;;7322892;19;110638;-91
2022/04/15 00:45:46;;;;;;;21.02;12.60;;;11.70;99.90;;;;;;7323712;19;110308;-90
2022/04/15 00:48:16;;;;;;;19.85;13.15;;;11.60;99.90;;;;;;7322402;19;111836;-90
2022/04/15 00:50:44;;;;;;;18.60;13.48;;;11.60;99.90;;;;;;7327664;19;111954;-90
2022/04/15 00:53:12;;;;;;;16.50;11.18;;;11.50;99.90;;;;;;7330466;19;110960;-90
2022/04/15 00:55:40;;;;;;;15.30;11.27;;;11.50;99.90;;;;;;7333341;19;110779;-91
2022/04/15 00:58:09;;;;;;;13.30;11.18;;;11.40;99.90;;;;;;7333530;19;110543;-90
2022/04/15 01:00:37;;;;;;;17.30;12.10;;;11.30;99.90;;;;;;7333975;19;111414;-90
2022/04/15 01:03:06;;;;;;;17.02;12.73;;;11.30;99.90;;;;;;7333781;19;113229;-90
2022/04/15 01:05:35;;;;;;;16.13;12.50;;;11.30;99.90;;;;;;7333985;19;109954;-91
2022/04/15 01:08:04;;;;;;;21.55;14.90;;;11.20;99.90;;;;;;7332895;19;111707;-90
2022/04/15 01:10:35;;;;;;;15.77;12.18;;;11.20;99.90;;;;;;7330743;19;112079;-90
2022/04/15 01:13:05;;;;;;;17.17;13.35;;;11.20;99.90;;;;;;7342042;19;109760;-90
2022/04/15 01:15:53;;;;;;;19.98;14.23;;;11.20;99.90;;;;;;7333950;19;111040;-89
2022/04/15 01:18:20;;;;;;;16.80;12.43;;;11.10;99.90;;;;;;7331488;19;112129;-91
2022/04/15 01:20:50;;;;;;;15.27;12.43;;;11.10;99.90;;;;;;7335802;19;110536;-90
2022/04/15 01:23:18;;;;;;;19.83;14.65;;;11.00;99.90;;;;;;7335890;19;111047;-90
2022/04/15 01:25:45;;;;;;;19.60;14.75;;;11.00;99.90;;;;;;7333377;19;110008;-90
2022/04/15 01:28:16;;;;;;;26.50;16.98;;;11.00;99.90;;;;;;7332957;19;110562;-90
2022/04/15 01:30:45;;;;;;;23.88;16.33;;;11.00;99.90;;;;;;7329939;19;110842;-90
2022/04/15 01:33:12;;;;;;;26.27;16.52;;;11.00;99.90;;;;;;7332246;19;110418;-90
2022/04/15 01:35:42;;;;;;;33.00;20.02;;;11.00;99.90;;;;;;7338311;19;110377;-91
2022/04/15 01:38:13;;;;;;;34.92;22.35;;;10.90;99.90;;;;;;7332952;19;110691;-91
2022/04/15 01:40:41;;;;;;;42.00;25.75;;;10.90;99.90;;;;;;7332564;19;110794;-90
2022/04/15 01:43:08;;;;;;;34.88;21.95;;;10.90;99.90;;;;;;7332901;19;112854;-89
2022/04/15 01:45:35;;;;;;;37.25;23.23;;;10.90;99.90;;;;;;7328613;19;110848;-89
2022/04/15 01:48:03;;;;;;;37.97;24.42;;;10.90;99.90;;;;;;7331635;19;111034;-91
2022/04/15 01:50:30;;;;;;;44.22;26.27;;;10.90;99.90;;;;;;7329085;19;110152;-90
2022/04/15 01:52:58;;;;;;;52.63;30.33;;;10.90;99.90;;;;;;7332092;19;110081;-91
2022/04/15 01:55:26;;;;;;;46.70;30.45;;;10.90;99.90;;;;;;7330348;19;111433;-90
2022/04/15 01:57:55;;;;;;;59.08;32.67;;;10.80;99.90;;;;;;7333971;19;111779;-90
2022/04/15 02:00:22;;;;;;;51.15;30.80;;;10.80;99.90;;;;;;7333255;19;112584;-90
2022/04/15 02:02:50;;;;;;;51.65;29.95;;;10.80;99.90;;;;;;7334075;19;111304;-90
2022/04/15 02:05:17;;;;;;;48.38;28.83;;;10.80;99.90;;;;;;7338803;19;111144;-90
2022/04/15 02:07:44;;;;;;;49.50;28.83;;;10.80;99.90;;;;;;7338429;19;110358;-90
2022/04/15 02:10:11;;;;;;;45.85;28.38;;;10.90;99.90;;;;;;7337004;19;110506;-89
2022/04/15 02:12:39;;;;;;;43.45;27.75;;;10.90;99.90;;;;;;7337563;19;111061;-90
2022/04/15 02:15:07;;;;;;;44.03;27.48;;;10.90;99.90;;;;;;7337231;19;110703;-90
2022/04/15 02:17:34;;;;;;;26.88;18.85;;;10.90;99.90;;;;;;7342851;19;110989;-90
2022/04/15 02:20:01;;;;;;;37.35;23.33;;;10.90;99.90;;;;;;7338838;19;113330;-90
2022/04/15 02:22:29;;;;;;;31.55;20.38;;;10.80;99.90;;;;;;7339268;19;110847;-90
2022/04/15 02:24:56;;;;;;;33.55;22.75;;;10.80;99.90;;;;;;7337521;19;109883;-90
2022/04/15 02:27:26;;;;;;;38.72;23.98;;;10.80;99.90;;;;;;7333943;19;111627;-90
2022/04/15 02:29:53;;;;;;;33.25;19.65;;;10.80;99.90;;;;;;7336387;19;111111;-90
2022/04/15 02:32:22;;;;;;;28.30;18.98;;;10.80;99.90;;;;;;7335916;19;110796;-90
2022/04/15 02:34:49;;;;;;;29.23;19.13;;;10.70;99.90;;;;;;7336584;19;111099;-89
2022/04/15 02:37:16;;;;;;;29.48;19.92;;;10.70;99.90;;;;;;7337439;19;110798;-89
2022/04/15 02:39:43;;;;;;;29.25;19.35;;;10.60;99.90;;;;;;7342178;19;110015;-90
2022/04/15 02:42:11;;;;;;;27.98;18.52;;;10.60;99.90;;;;;;7335207;19;113023;-90
2022/04/15 02:44:38;;;;;;;25.02;17.02;;;10.60;99.90;;;;;;7338949;19;110812;-90
2022/04/15 02:47:07;;;;;;;32.75;19.20;;;10.50;99.90;;;;;;7337365;19;113071;-89
2022/04/15 02:49:34;;;;;;;34.53;20.30;;;10.50;99.90;;;;;;7335851;19;111466;-89
2022/04/15 02:52:02;;;;;;;31.55;19.58;;;10.40;99.90;;;;;;7337494;19;110296;-89
2022/04/15 02:54:29;;;;;;;31.20;21.17;;;10.40;99.90;;;;;;7337406;19;110860;-90
2022/04/15 02:56:56;;;;;;;26.05;18.17;;;10.30;99.90;;;;;;7336190;19;111814;-89
2022/04/15 02:59:24;;;;;;;33.45;21.15;;;10.30;99.90;;;;;;7334065;19;110606;-89
2022/04/15 03:01:51;;;;;;;32.35;20.40;;;10.30;99.90;;;;;;7342179;19;110687;-90
2022/04/15 03:04:18;;;;;;;38.05;21.27;;;10.20;99.90;;;;;;7337157;19;111769;-89
2022/04/15 03:06:45;;;;;;;38.78;23.70;;;10.20;99.90;;;;;;7335970;19;112011;-89
2022/04/15 03:09:12;;;;;;;35.47;22.50;;;10.10;99.90;;;;;;7335755;19;110780;-89
2022/04/15 03:11:39;;;;;;;25.98;17.00;;;10.00;99.90;;;;;;7336760;19;110465;-89
2022/04/15 03:14:07;;;;;;;43.35;26.73;;;10.10;99.90;;;;;;7333112;19;112459;-89
2022/04/15 03:16:34;;;;;;;30.95;20.90;;;10.00;99.90;;;;;;7336137;19;111700;-89
2022/04/15 03:19:02;;;;;;;36.60;23.77;;;9.90;99.90;;;;;;7335950;19;110709;-89
2022/04/15 03:21:29;;;;;;;31.02;19.88;;;9.90;99.90;;;;;;7336654;19;110828;-89
2022/04/15 03:23:56;;;;;;;39.17;24.70;;;9.90;99.90;;;;;;7342229;19;111779;-90
2022/04/15 03:26:24;;;;;;;34.78;22.42;;;9.90;99.90;;;;;;7335212;19;110748;-89
2022/04/15 03:28:51;;;;;;;28.13;19.13;;;9.80;99.90;;;;;;7335692;19;110965;-90
2022/04/15 03:31:18;;;;;;;24.83;17.75;;;9.80;99.90;;;;;;7334422;19;109886;-90
2022/04/15 03:33:46;;;;;;;22.60;16.58;;;9.80;99.90;;;;;;7335097;19;110455;-89
2022/04/15 03:36:13;;;;;;;24.77;17.80;;;9.80;99.90;;;;;;7336169;19;111621;-90
2022/04/15 03:38:41;;;;;;;30.73;19.75;;;9.70;99.90;;;;;;7335506;19;110480;-90
2022/04/15 03:41:08;;;;;;;35.20;22.05;;;9.70;99.90;;;;;;7336800;19;111922;-90
2022/04/15 03:43:35;;;;;;;54.67;29.75;;;9.70;99.90;;;;;;7335862;19;112316;-89
2022/04/15 03:46:03;;;;;;;37.58;24.52;;;9.60;99.90;;;;;;7342143;19;110539;-89
2022/04/15 03:48:30;;;;;;;50.45;29.60;;;9.50;99.90;;;;;;7335275;19;110836;-89
2022/04/15 03:50:57;;;;;;;43.63;26.65;;;9.50;99.90;;;;;;7336081;19;110738;-89
2022/04/15 03:53:24;;;;;;;49.10;28.02;;;9.50;99.90;;;;;;7335410;19;112299;-90
2022/04/15 03:55:52;;;;;;;47.25;28.63;;;9.60;99.90;;;;;;7335168;19;111858;-89
2022/04/15 03:58:19;;;;;;;56.13;32.20;;;9.60;99.90;;;;;;7336159;19;110343;-89
2022/04/15 04:00:47;;;;;;;55.90;31.45;;;9.50;99.90;;;;;;7334662;19;110652;-89
2022/04/15 04:03:14;;;;;;;53.67;31.92;;;9.50;99.90;;;;;;7336619;19;112281;-90
2022/04/15 04:05:42;;;;;;;53.80;30.27;;;9.50;99.90;;;;;;7335437;19;111083;-90
2022/04/15 04:08:10;;;;;;;56.30;32.38;;;9.50;99.90;;;;;;7340818;19;110366;-90
2022/04/15 04:10:37;;;;;;;55.80;32.03;;;9.50;99.90;;;;;;7334932;19;109935;-90
2022/04/15 04:13:04;;;;;;;49.45;30.75;;;9.40;99.90;;;;;;7336037;19;112146;-89
2022/04/15 04:15:33;;;;;;;51.75;29.75;;;9.50;99.90;;;;;;7334892;19;111137;-89
2022/04/15 04:18:01;;;;;;;52.65;29.58;;;9.50;99.90;;;;;;7334543;19;110543;-89
2022/04/15 04:20:28;;;;;;;56.08;32.08;;;9.50;99.90;;;;;;7335975;19;110439;-89
2022/04/15 04:22:55;;;;;;;49.92;30.20;;;9.50;99.90;;;;;;7336668;19;111476;-90
2022/04/15 04:25:22;;;;;;;54.08;32.05;;;9.60;99.90;;;;;;7333454;19;110877;-89
2022/04/15 04:27:49;;;;;;;50.17;30.30;;;9.50;99.90;;;;;;7338918;19;112960;-89
2022/04/15 04:30:17;;;;;;;44.38;27.88;;;9.50;99.90;;;;;;7334115;19;109759;-90
2022/04/15 04:32:51;;;;;;;45.50;26.52;;;9.50;99.90;;;;;;7332009;19;110553;-90
2022/04/15 04:35:20;;;;;;;46.10;26.52;;;9.50;99.90;;;;;;7333901;19;110947;-90
2022/04/15 04:37:48;;;;;;;41.30;26.48;;;9.50;99.90;;;;;;7334746;19;110112;-90
2022/04/15 04:40:15;;;;;;;49.15;28.70;;;9.50;99.90;;;;;;7333010;19;112182;-89
2022/04/15 04:42:44;;;;;;;47.35;27.55;;;9.40;99.90;;;;;;7333922;19;111920;-89
2022/04/15 04:45:12;;;;;;;48.58;26.60;;;9.40;99.90;;;;;;7334006;19;110498;-90
2022/04/15 04:47:41;;;;;;;39.35;24.77;;;9.40;99.90;;;;;;7334663;19;111086;-90
2022/04/15 04:50:10;;;;;;;43.22;25.38;;;9.40;99.90;;;;;;7340249;19;111188;-90
2022/04/15 04:52:38;;;;;;;40.78;24.45;;;9.30;99.90;;;;;;7332926;19;110857;-89
2022/04/15 04:55:07;;;;;;;38.85;24.48;;;9.30;99.90;;;;;;7333749;19;113033;-89
2022/04/15 04:57:34;;;;;;;40.88;24.48;;;9.30;99.90;;;;;;7332634;19;110666;-89
2022/04/15 05:00:02;;;;;;;38.05;22.52;;;9.30;99.90;;;;;;7333422;19;110670;-89
2022/04/15 05:02:29;;;;;;;37.35;24.02;;;9.30;99.90;;;;;;7335235;19;110812;-89
2022/04/15 05:04:56;;;;;;;33.38;22.65;;;9.30;99.90;;;;;;7332935;19;111156;-89
2022/04/15 05:07:23;;;;;;;40.25;24.67;;;9.20;99.90;;;;;;7333621;19;110509;-90
2022/04/15 05:09:51;;;;;;;36.50;23.15;;;9.20;99.90;;;;;;7333001;19;110725;-89
2022/04/15 05:12:19;;;;;;;38.28;24.05;;;9.20;99.90;;;;;;7338108;19;111013;-90
2022/04/15 05:14:46;;;;;;;42.47;24.98;;;9.30;99.90;;;;;;7333601;19;110757;-91
2022/04/15 05:17:13;;;;;;;40.20;25.98;;;9.20;99.90;;;;;;7333582;19;110460;-89
2022/04/15 05:19:43;;;;;;;43.92;26.55;;;9.20;99.90;;;;;;7332697;19;111086;-88
2022/04/15 05:22:12;;;;;;;41.60;26.33;;;9.30;99.90;;;;;;7332846;19;111640;-88
2022/04/15 05:24:39;;;;;;;42.30;26.00;;;9.30;99.90;;;;;;7331734;19;109861;-89
2022/04/15 05:27:06;;;;;;;48.63;28.50;;;9.30;99.90;;;;;;7332502;19;110792;-89
2022/04/15 05:29:34;;;;;;;49.17;28.25;;;9.30;99.90;;;;;;7333593;19;111646;-89
2022/04/15 05:32:02;;;;;;;62.53;35.72;;;9.30;99.90;;;;;;7330965;19;110007;-89
2022/04/15 05:34:29;;;;;;;54.50;30.85;;;9.30;99.90;;;;;;7338297;19;110472;-89
2022/04/15 05:36:56;;;;;;;56.55;31.52;;;9.30;99.90;;;;;;7333988;19;110372;-89
2022/04/15 05:39:24;;;;;;;63.30;35.28;;;9.30;99.90;;;;;;7338115;19;110333;-89
2022/04/15 05:41:51;;;;;;;61.78;34.55;;;9.30;99.90;;;;;;7328364;19;111722;-89
2022/04/15 05:44:18;;;;;;;68.05;36.65;;;9.30;99.90;;;;;;7338702;19;110079;-89
2022/04/15 05:46:45;;;;;;;70.80;38.22;;;9.30;99.90;;;;;;7337610;19;110781;-89
2022/04/15 05:49:16;;;;;;;63.33;35.33;;;9.30;99.90;;;;;;7338462;19;110802;-90
2022/04/15 05:51:45;;;;;;;77.25;39.85;;;9.30;99.90;;;;;;7337791;19;110127;-89
2022/04/15 05:54:13;;;;;;;72.43;38.33;;;9.40;99.90;;;;;;7340994;19;110702;-90
2022/04/15 05:56:40;;;;;;;70.13;37.97;;;9.40;99.90;;;;;;7344646;19;111337;-89
2022/04/15 05:59:07;;;;;;;81.75;40.13;;;9.40;99.90;;;;;;7337848;19;110565;-89
2022/04/15 06:01:35;;;;;;;74.43;38.25;;;9.50;99.90;;;;;;7338703;19;110919;-91
2022/04/15 06:04:03;;;;;;;68.45;38.00;;;9.50;99.90;;;;;;7338956;19;110352;-90
2022/04/15 06:06:30;;;;;;;66.85;36.15;;;9.50;99.90;;;;;;7343476;19;110336;-91
2022/04/15 06:08:58;;;;;;;59.25;36.30;;;9.60;99.90;;;;;;7340168;19;110759;-92
2022/04/15 06:11:25;;;;;;;64.97;35.85;;;9.70;99.90;;;;;;7339168;19;110583;-91
2022/04/15 06:13:55;;;;;;;71.35;36.38;;;9.80;99.90;;;;;;7340383;19;110443;-92
2022/04/15 06:16:22;;;;;;;82.50;39.83;;;9.90;99.90;;;;;;7340549;19;110734;-92
2022/04/15 06:18:53;;;;;;;68.90;36.42;;;9.90;99.90;;;;;;7346225;19;110400;-92
2022/04/15 06:21:49;;;;;;;69.40;37.92;;;10.00;99.90;;;;;;7339626;19;110872;-92
2022/04/15 06:24:18;;;;;;;75.65;40.55;;;10.00;99.90;;;;;;7340631;19;110537;-92
2022/04/15 06:26:46;;;;;;;76.38;42.88;;;10.00;99.90;;;;;;7339405;19;110926;-92
2022/04/15 06:29:27;;;;;;;71.50;40.70;;;10.00;99.90;;;;;;7337830;19;110727;-92
2022/04/15 06:32:08;;;;;;;79.53;42.85;;;10.00;99.90;;;;;;7339573;19;110890;-90
2022/04/15 06:34:35;;;;;;;69.35;40.72;;;10.20;99.90;;;;;;7341744;19;110440;-92
2022/04/15 06:37:03;;;;;;;65.57;38.45;;;10.20;99.90;;;;;;7340372;19;110948;-90
2022/04/15 06:39:33;;;;;;;66.82;36.95;;;10.30;99.90;;;;;;7341699;19;112193;-93
2022/04/15 06:42:00;;;;;;;67.90;40.53;;;10.50;99.90;;;;;;7336594;19;111685;-93
2022/04/15 06:44:27;;;;;;;68.65;39.70;;;10.60;99.90;;;;;;7336404;19;110984;-90
2022/04/15 06:46:54;;;;;;;63.13;37.25;;;10.70;99.90;;;;;;7335428;19;111331;-91
2022/04/15 06:49:21;;;;;;;62.85;38.38;;;10.70;99.90;;;;;;7335211;19;110741;-92
2022/04/15 06:51:49;;;;;;;58.17;35.28;;;10.70;99.90;;;;;;7335447;19;110015;-93
2022/04/15 06:54:30;;;;;;;55.17;33.35;;;10.70;99.90;;;;;;7337785;19;110595;-93
2022/04/15 06:56:57;;;;;;;69.57;36.72;;;10.90;99.90;;;;;;7338241;19;111898;-93
2022/04/15 06:59:24;;;;;;;59.55;33.42;;;10.90;99.90;;;;;;7339219;19;110747;-87
2022/04/15 07:01:51;;;;;;;60.22;35.55;;;10.80;99.90;;;;;;7343136;19;113933;-92
2022/04/15 07:04:18;;;;;;;74.97;37.63;;;10.70;99.90;;;;;;7336301;19;110537;-92
2022/04/15 07:06:45;;;;;;;63.05;35.60;;;10.60;99.90;;;;;;7336636;19;112881;-90
2022/04/15 07:09:12;;;;;;;67.97;36.78;;;10.70;99.90;;;;;;7326541;19;111057;-90
2022/04/15 07:11:42;;;;;;;63.10;35.10;;;10.70;99.90;;;;;;7323800;19;110845;-91
2022/04/15 07:14:09;;;;;;;67.10;36.85;;;10.70;99.90;;;;;;7325393;19;111042;-90
2022/04/15 07:16:37;;;;;;;62.67;35.95;;;10.70;99.90;;;;;;7323907;19;111957;-92
2022/04/15 07:19:08;;;;;;;65.55;36.15;;;10.70;99.90;;;;;;7325257;19;110849;-91
2022/04/15 07:21:36;;;;;;;72.10;36.60;;;10.80;99.90;;;;;;7325532;19;110855;-91
2022/04/15 07:24:04;;;;;;;60.58;34.50;;;10.90;99.90;;;;;;7329087;19;111341;-91
2022/04/15 07:26:32;;;;;;;66.85;34.25;;;10.90;99.90;;;;;;7323384;19;111985;-91
2022/04/15 07:29:03;;;;;;;62.80;34.05;;;10.90;99.90;;;;;;7321743;19;111822;-91
2022/04/15 07:31:30;;;;;;;68.32;37.40;;;11.00;99.90;;;;;;7319357;19;113680;-90
2022/04/15 07:33:58;;;;;;;69.18;36.33;;;11.00;99.90;;;;;;7332884;19;110472;-92
2022/04/15 07:39:09;;;;;;;66.13;35.35;;;11.00;99.90;;;;;;7344433;19;110371;-92
2022/04/15 07:41:37;;;;;;;58.70;33.78;;;11.00;99.90;;;;;;7339048;19;111142;-92
2022/04/15 07:44:10;;;;;;;64.18;34.25;;;11.00;99.90;;;;;;7341102;19;111167;-91
2022/04/15 07:46:40;;;;;;;59.72;31.83;;;11.00;99.90;;;;;;7346299;19;110421;-91
2022/04/15 07:49:11;;;;;;;67.93;34.72;;;11.10;99.90;;;;;;7339205;19;110997;-92
2022/04/15 07:51:52;;;;;;;66.80;34.83;;;11.10;99.90;;;;;;7340378;19;110661;-91
2022/04/15 07:54:20;;;;;;;62.63;31.90;;;11.20;99.90;;;;;;7343740;19;110531;-92
2022/04/15 07:56:48;;;;;;;51.00;30.25;;;11.30;99.90;;;;;;7336538;19;109882;-92
2022/04/15 07:59:29;;;;;;;53.00;32.15;;;11.20;99.90;;;;;;7336236;19;110660;-91
2022/04/15 08:01:58;;;;;;;42.13;27.42;;;11.10;99.90;;;;;;7336423;19;110981;-89
2022/04/15 08:04:26;;;;;;;54.42;27.67;;;11.20;99.90;;;;;;7340253;19;114242;-89
2022/04/15 08:06:53;;;;;;;40.05;27.42;;;11.10;99.90;;;;;;7338123;19;109973;-90
2022/04/15 08:09:20;;;;;;;43.15;28.80;;;11.20;99.90;;;;;;7346276;19;110683;-90
2022/04/15 08:11:49;;;;;;;58.85;32.17;;;11.10;99.90;;;;;;7336387;19;110018;-91
2022/04/15 08:14:16;;;;;;;50.92;30.90;;;11.10;99.90;;;;;;7336295;19;111830;-91
2022/04/15 08:16:43;;;;;;;40.03;27.60;;;11.20;99.90;;;;;;7340783;19;111318;-91
2022/04/15 08:19:10;;;;;;;46.75;28.08;;;11.20;99.90;;;;;;7339633;19;110417;-92
2022/04/15 08:21:38;;;;;;;39.72;26.25;;;11.20;99.90;;;;;;7342266;19;110879;-92
2022/04/15 08:24:05;;;;;;;38.08;25.90;;;11.20;99.90;;;;;;7330033;19;110833;-92
2022/04/15 08:26:32;;;;;;;40.42;26.23;;;11.20;99.90;;;;;;7330329;19;110387;-90
2022/04/15 08:29:00;;;;;;;35.25;25.40;;;11.30;99.90;;;;;;7338718;19;110780;-91
2022/04/15 08:31:27;;;;;;;38.92;26.52;;;11.30;99.90;;;;;;7344582;19;111099;-91
2022/04/15 08:33:54;;;;;;;33.75;23.92;;;11.30;99.90;;;;;;7333067;19;110785;-91
2022/04/15 08:36:35;;;;;;;37.28;24.98;;;11.20;99.90;;;;;;7330564;19;110778;-91
2022/04/15 08:39:02;;;;;;;34.50;24.02;;;11.30;99.90;;;;;;7335498;19;111091;-91
2022/04/15 08:41:35;;;;;;;34.95;23.55;;;11.30;99.90;;;;;;7338639;19;112552;-92
2022/04/15 08:44:05;;;;;;;31.15;22.35;;;11.30;99.90;;;;;;7336647;19;112026;-91
2022/04/15 08:46:33;;;;;;;27.70;20.60;;;11.20;99.90;;;;;;7335790;19;110048;-89
2022/04/15 08:49:01;;;;;;;30.27;21.08;;;11.20;99.90;;;;;;7335767;19;111429;-91
2022/04/15 08:51:29;;;;;;;34.40;21.92;;;11.10;99.90;;;;;;7341616;19;110656;-92
2022/04/15 08:53:56;;;;;;;34.70;23.77;;;11.10;99.90;;;;;;7334249;19;111812;-91
2022/04/15 08:56:23;;;;;;;31.73;21.25;;;11.00;99.90;;;;;;7335618;19;111082;-91
2022/04/15 08:58:51;;;;;;;29.50;21.73;;;10.90;99.90;;;;;;7334929;19;111738;-92
2022/04/15 09:01:18;;;;;;;30.23;20.23;;;11.10;99.90;;;;;;7336286;19;110328;-91
2022/04/15 09:03:45;;;;;;;30.30;20.92;;;11.10;99.90;;;;;;7332105;19;110865;-90
2022/04/15 09:06:16;;;;;;;27.90;19.35;;;11.20;99.90;;;;;;7332965;19;109917;-92
2022/04/15 09:09:02;;;;;;;30.95;20.50;;;11.30;99.90;;;;;;7333342;19;111198;-91
2022/04/15 09:11:31;;;;;;;25.58;19.33;;;11.10;99.90;;;;;;7333074;19;112889;-91
2022/04/15 09:14:02;;;;;;;29.23;19.80;;;11.20;99.90;;;;;;7337969;19;111624;-91
2022/04/15 09:16:31;;;;;;;26.00;20.35;;;11.40;99.90;;;;;;7336058;19;111636;-91
2022/04/15 09:18:59;;;;;;;30.38;20.83;;;11.40;99.90;;;;;;7334168;19;110801;-91
2022/04/15 09:21:27;;;;;;;26.77;19.90;;;11.40;99.90;;;;;;7335858;19;110528;-91
2022/04/15 09:23:55;;;;;;;27.45;20.77;;;11.40;99.90;;;;;;7331340;19;111185;-92
2022/04/15 09:26:24;;;;;;;26.40;19.70;;;11.50;99.90;;;;;;7335103;19;110081;-91
2022/04/15 09:28:53;;;;;;;26.98;19.65;;;11.60;99.90;;;;;;7332958;19;110235;-91
2022/04/15 09:31:23;;;;;;;29.15;19.73;;;11.60;99.90;;;;;;7333566;19;112732;-91
2022/04/15 09:33:58;;;;;;;25.85;18.95;;;11.70;99.90;;;;;;7330107;19;113524;-91
2022/04/15 09:36:30;;;;;;;26.05;17.85;;;11.90;99.90;;;;;;7341059;19;111076;-91
2022/04/15 09:39:11;;;;;;;23.77;17.77;;;11.90;99.90;;;;;;7332373;19;111229;-91
2022/04/15 09:41:40;;;;;;;23.25;17.92;;;12.00;99.90;;;;;;7331865;19;113126;-90
2022/04/15 09:44:12;;;;;;;26.83;18.70;;;11.90;99.90;;;;;;7323723;19;111519;-91
2022/04/15 09:46:46;;;;;;;24.00;18.35;;;11.80;99.90;;;;;;7331160;19;110395;-91
2022/04/15 09:49:14;;;;;;;24.00;18.35;;;11.90;99.90;;;;;;7330942;19;110456;-89
2022/04/15 09:51:59;;;;;;;23.27;17.33;;;12.00;99.90;;;;;;7331120;19;111061;-90
2022/04/15 09:54:28;;;;;;;23.77;17.88;;;12.00;99.90;;;;;;7330289;19;110025;-91
2022/04/15 09:56:57;;;;;;;31.98;20.63;;;12.00;99.90;;;;;;7329736;19;110690;-91
2022/04/15 09:59:26;;;;;;;29.80;19.80;;;12.10;99.90;;;;;;7335296;19;111713;-90
2022/04/15 10:02:05;;;;;;;25.15;18.25;;;12.20;99.90;;;;;;7329560;19;111435;-89
2022/04/15 10:04:34;;;;;;;38.92;21.95;;;12.40;99.90;;;;;;7331745;19;110848;-89
2022/04/15 10:07:06;;;;;;;31.73;21.30;;;12.50;99.90;;;;;;7331627;19;110663;-90
2022/04/15 10:09:38;;;;;;;35.97;22.77;;;12.50;99.90;;;;;;7332995;19;111121;-93
2022/04/15 10:12:07;;;;;;;31.90;21.67;;;12.70;99.90;;;;;;7334076;19;111612;-89
2022/04/15 10:14:35;;;;;;;38.45;22.73;;;12.80;99.90;;;;;;7332089;19;113268;-88
2022/04/15 10:17:03;;;;;;;40.05;24.05;;;12.80;99.90;;;;;;7327776;19;111485;-92
2022/04/15 10:19:32;;;;;;;36.38;22.75;;;12.70;99.90;;;;;;7330637;19;110774;-91
2022/04/15 10:22:00;;;;;;;35.38;21.35;;;12.70;99.90;;;;;;7338622;19;110602;-91
2022/04/15 10:24:29;;;;;;;32.53;22.08;;;12.70;99.90;;;;;;7335319;19;110703;-92
2022/04/15 10:27:00;;;;;;;29.65;20.80;;;12.70;99.90;;;;;;7339904;19;110285;-91
2022/04/15 10:29:27;;;;;;;21.20;15.57;;;12.70;99.90;;;;;;7340559;19;110973;-91
2022/04/15 10:31:54;;;;;;;26.05;18.27;;;12.60;99.90;;;;;;7338452;19;111334;-91
2022/04/15 10:34:22;;;;;;;22.40;16.52;;;12.60;99.90;;;;;;7338077;19;110374;-93
2022/04/15 10:36:51;;;;;;;28.58;18.58;;;12.70;99.90;;;;;;7339478;19;111478;-90
2022/04/15 10:39:25;;;;;;;25.20;18.17;;;13.00;99.90;;;;;;7338355;19;109903;-90
2022/04/15 10:42:01;;;;;;;32.67;20.48;;;13.10;99.90;;;;;;7337953;19;110705;-91
2022/04/15 10:44:39;;;;;;;23.98;17.65;;;13.10;99.90;;;;;;7342412;19;110375;-91
2022/04/15 10:47:14;;;;;;;19.55;15.73;;;13.20;99.90;;;;;;7338294;19;110123;-90
2022/04/15 10:50:01;;;;;;;24.92;18.92;;;13.20;99.90;;;;;;7340372;19;110275;-91
2022/04/15 10:52:30;;;;;;;22.13;17.65;;;13.30;99.90;;;;;;7336459;19;111525;-89
2022/04/15 10:54:58;;;;;;;23.48;15.88;;;13.40;99.90;;;;;;7338639;19;109889;-91
2022/04/15 10:58:10;;;;;;;23.38;15.73;;;13.50;99.90;;;;;;7339323;19;110667;-89
2022/04/15 11:03:24;;;;;;;27.20;17.17;;;13.40;99.90;;;;;;7336776;19;110393;-92
2022/04/15 11:05:55;;;;;;;24.85;18.00;;;13.70;99.90;;;;;;7345314;19;111740;-92
2022/04/15 11:08:51;;;;;;;27.88;17.85;;;14.00;99.90;;;;;;7339604;19;111464;-93
2022/04/15 11:11:33;;;;;;;29.65;18.88;;;14.20;99.90;;;;;;7337409;19;110454;-93
2022/04/15 11:14:04;;;;;;;26.85;18.90;;;14.30;99.90;;;;;;7337553;19;111445;-91
2022/04/15 11:16:48;;;;;;;26.20;18.50;;;14.50;99.90;;;;;;7341157;19;109912;-93
2022/04/15 11:19:41;;;;;;;24.35;18.05;;;14.70;99.90;;;;;;7336672;19;112826;-92
2022/04/15 11:22:09;;;;;;;24.75;18.88;;;14.70;99.90;;;;;;7337861;19;111495;-95
2022/04/15 11:24:53;;;;;;;27.90;17.90;;;14.80;99.90;;;;;;7338360;19;110085;-88
2022/04/15 11:27:22;;;;;;;29.25;20.02;;;14.80;99.90;;;;;;7342934;19;110442;-93
2022/04/15 11:29:50;;;;;;;27.73;19.83;;;14.50;99.90;;;;;;7348263;19;110872;-92
2022/04/15 11:32:17;;;;;;;28.52;18.20;;;14.50;99.90;;;;;;7344599;19;111987;-92
2022/04/15 11:34:44;;;;;;;24.95;17.05;;;14.50;99.90;;;;;;7340000;19;114125;-93
2022/04/15 11:37:11;;;;;;;19.85;15.68;;;14.70;99.90;;;;;;7343227;19;110666;-93
2022/04/15 11:39:45;;;;;;;26.85;16.25;;;14.70;99.90;;;;;;7342671;19;110767;-93
2022/04/15 11:42:12;;;;;;;21.90;16.17;;;14.80;99.90;;;;;;7336526;19;110871;-93
2022/04/15 11:44:41;;;;;;;19.70;16.00;;;15.10;99.90;;;;;;7339165;19;110536;-94
2022/04/15 11:47:19;;;;;;;21.05;15.75;;;15.50;99.90;;;;;;7339008;19;110722;-94
2022/04/15 11:49:51;;;;;;;23.35;16.50;;;15.70;99.90;;;;;;7338249;19;112506;-93
2022/04/15 11:52:28;;;;;;;18.05;15.07;;;15.90;99.90;;;;;;7344112;19;110624;-93
2022/04/15 11:54:58;;;;;;;25.63;15.68;;;16.30;99.90;;;;;;7337045;19;111491;-91
2022/04/15 11:57:29;;;;;;;25.05;17.08;;;16.30;99.90;;;;;;7339972;19;110181;-93
2022/04/15 11:59:56;;;;;;;19.30;15.80;;;16.50;99.90;;;;;;7336621;19;111536;-88
2022/04/15 12:02:25;;;;;;;19.73;15.73;;;16.30;99.90;;;;;;7337556;19;110750;-93
2022/04/15 12:04:54;;;;;;;19.58;15.13;;;15.90;99.90;;;;;;7337061;19;110925;-92
2022/04/15 12:07:23;;;;;;;24.85;15.40;;;16.00;99.90;;;;;;7339845;19;110866;-89
2022/04/15 12:09:52;;;;;;;20.30;16.48;;;16.20;99.90;;;;;;7338444;19;112639;-88
2022/04/15 12:12:20;;;;;;;24.77;15.57;;;16.40;99.90;;;;;;7335737;19;109837;-88
2022/04/15 12:14:50;;;;;;;18.42;15.68;;;16.70;99.90;;;;;;7336546;19;111018;-88
2022/04/15 12:17:18;;;;;;;30.50;17.75;;;16.90;99.90;;;;;;7337132;19;110072;-88
2022/04/15 12:19:47;;;;;;;25.55;17.20;;;17.00;99.90;;;;;;7333793;19;109878;-88
2022/04/15 12:22:14;;;;;;;25.10;16.60;;;17.20;99.90;;;;;;7336809;19;112152;-86
2022/04/15 12:24:42;;;;;;;20.55;15.45;;;17.20;99.90;;;;;;7334159;19;110038;-88
2022/04/15 12:27:17;;;;;;;21.42;15.65;;;17.30;99.90;;;;;;7335734;19;110908;-89
2022/04/15 12:29:51;;;;;;;16.27;14.30;;;17.40;99.90;;;;;;7333407;19;110481;-88
2022/04/15 12:32:32;;;;;;;20.67;13.98;;;17.30;99.90;;;;;;7335138;19;110571;-88
2022/04/15 12:34:59;;;;;;;16.13;14.43;;;17.30;99.90;;;;;;7333014;19;112540;-89
2022/04/15 12:37:47;;;;;;;22.27;15.02;;;17.50;99.90;;;;;;7342581;19;114008;-87